sensor_id;sensor_type;location;lat;lon;timestamp;temperature;humidity
3298;DHT22;1661;53.572;10.174;2022-09-24T00:02:17;15.50;73.30
3298;DHT22;1661;53.572;10.174;2022-09-24T00:04:44;15.50;73.10
3298;DHT22;1661;53.572;10.174;2022-09-24T00:07:11;15.50;73.30
3298;DHT22;1661;53.572;10.174;2022-09-24T00:09:38;15.40;73.50
3298;DHT22;1661;53.572;10.174;2022-09-24T00:12:05;15.40;73.60
3298;DHT22;1661;53.572;10.174;2022-09-24T00:14:31;15.40;73.70
3298;DHT22;1661;53.572;10.174;2022-09-24T00:16:58;15.40;73.70
3298;DHT22;1661;53.572;10.174;2022-09-24T00:19:26;15.40;74.10
3298;DHT22;1661;53.572;10.174;2022-09-24T00:21:53;15.40;74.00
3298;DHT22;1661;53.572;10.174;2022-09-24T00:24:19;15.40;74.30
3298;DHT22;1661;53.572;10.174;2022-09-24T00:27:06;15.40;74.40
3298;DHT22;1661;53.572;10.174;2022-09-24T00:29:33;15.40;74.50
3298;DHT22;1661;53.572;10.174;2022-09-24T00:32:00;15.30;74.50
3298;DHT22;1661;53.572;10.174;2022-09-24T00:34:29;15.30;74.90
3298;DHT22;1661;53.572;10.174;2022-09-24T00:36:56;15.30;75.30
3298;DHT22;1661;53.572;10.174;2022-09-24T00:39:23;15.20;75.70
3298;DHT22;1661;53.572;10.174;2022-09-24T00:41:50;15.20;75.90
3298;DHT22;1661;53.572;10.174;2022-09-24T00:44:46;15.10;76.20
3298;DHT22;1661;53.572;10.174;2022-09-24T00:47:22;15.00;76.80
3298;DHT22;1661;53.572;10.174;2022-09-24T00:49:57;14.90;77.20
3298;DHT22;1661;53.572;10.174;2022-09-24T00:52:27;14.80;77.60
3298;DHT22;1661;53.572;10.174;2022-09-24T00:54:54;14.80;77.80
3298;DHT22;1661;53.572;10.174;2022-09-24T00:57:21;14.80;77.70
3298;DHT22;1661;53.572;10.174;2022-09-24T00:59:49;14.80;77.30
3298;DHT22;1661;53.572;10.174;2022-09-24T01:02:16;14.80;76.90
3298;DHT22;1661;53.572;10.174;2022-09-24T01:04:42;14.80;76.80
3298;DHT22;1661;53.572;10.174;2022-09-24T01:07:10;14.80;76.70
3298;DHT22;1661;53.572;10.174;2022-09-24T01:09:37;14.80;76.20
3298;DHT22;1661;53.572;10.174;2022-09-24T01:12:11;14.80;76.30
3298;DHT22;1661;53.572;10.174;2022-09-24T01:14:52;14.80;76.50
3298;DHT22;1661;53.572;10.174;2022-09-24T01:17:27;14.80;76.70
3298;DHT22;1661;53.572;10.174;2022-09-24T01:23:06;14.90;76.90
3298;DHT22;1661;53.572;10.174;2022-09-24T01:25:41;14.80;77.40
3298;DHT22;1661;53.572;10.174;2022-09-24T01:28:27;14.80;77.90
3298;DHT22;1661;53.572;10.174;2022-09-24T01:31:00;14.80;78.30
3298;DHT22;1661;53.572;10.174;2022-09-24T01:33:30;14.70;78.20
3298;DHT22;1661;53.572;10.174;2022-09-24T01:36:01;14.70;78.50
3298;DHT22;1661;53.572;10.174;2022-09-24T01:38:35;14.70;78.20
3298;DHT22;1661;53.572;10.174;2022-09-24T01:41:04;14.70;78.00
3298;DHT22;1661;53.572;10.174;2022-09-24T01:43:33;14.60;78.10
3298;DHT22;1661;53.572;10.174;2022-09-24T01:46:02;14.60;77.90
3298;DHT22;1661;53.572;10.174;2022-09-24T01:48:30;14.60;77.70
3298;DHT22;1661;53.572;10.174;2022-09-24T01:51:00;14.70;77.80
3298;DHT22;1661;53.572;10.174;2022-09-24T01:53:31;14.70;77.40
3298;DHT22;1661;53.572;10.174;2022-09-24T01:56:03;14.70;77.30
3298;DHT22;1661;53.572;10.174;2022-09-24T01:58:37;14.70;77.20
3298;DHT22;1661;53.572;10.174;2022-09-24T02:01:11;14.70;77.50
3298;DHT22;1661;53.572;10.174;2022-09-24T02:03:43;14.70;77.10
3298;DHT22;1661;53.572;10.174;2022-09-24T02:06:15;14.70;77.20
3298;DHT22;1661;53.572;10.174;2022-09-24T02:08:45;14.70;77.10
3298;DHT22;1661;53.572;10.174;2022-09-24T02:11:15;14.70;77.10
3298;DHT22;1661;53.572;10.174;2022-09-24T02:13:44;14.70;77.10
3298;DHT22;1661;53.572;10.174;2022-09-24T02:16:19;14.70;77.30
3298;DHT22;1661;53.572;10.174;2022-09-24T02:18:48;14.70;77.50
3298;DHT22;1661;53.572;10.174;2022-09-24T02:21:17;14.70;77.90
3298;DHT22;1661;53.572;10.174;2022-09-24T02:23:50;14.70;77.80
3298;DHT22;1661;53.572;10.174;2022-09-24T02:26:17;14.70;78.00
3298;DHT22;1661;53.572;10.174;2022-09-24T02:28:43;14.70;78.00
3298;DHT22;1661;53.572;10.174;2022-09-24T02:31:14;14.70;77.60
3298;DHT22;1661;53.572;10.174;2022-09-24T02:33:45;14.70;77.60
3298;DHT22;1661;53.572;10.174;2022-09-24T02:36:31;14.70;77.60
3298;DHT22;1661;53.572;10.174;2022-09-24T02:38:58;14.70;77.60
3298;DHT22;1661;53.572;10.174;2022-09-24T02:41:25;14.70;77.50
3298;DHT22;1661;53.572;10.174;2022-09-24T02:43:52;14.70;76.90
3298;DHT22;1661;53.572;10.174;2022-09-24T02:46:20;14.70;76.80
3298;DHT22;1661;53.572;10.174;2022-09-24T02:48:47;14.70;77.30
3298;DHT22;1661;53.572;10.174;2022-09-24T02:51:13;14.70;77.50
3298;DHT22;1661;53.572;10.174;2022-09-24T02:53:40;14.70;77.50
3298;DHT22;1661;53.572;10.174;2022-09-24T02:56:07;14.60;77.90
3298;DHT22;1661;53.572;10.174;2022-09-24T02:58:34;14.70;78.10
3298;DHT22;1661;53.572;10.174;2022-09-24T03:01:02;14.60;78.10
3298;DHT22;1661;53.572;10.174;2022-09-24T03:03:30;14.60;78.20
3298;DHT22;1661;53.572;10.174;2022-09-24T03:05:57;14.60;78.60
3298;DHT22;1661;53.572;10.174;2022-09-24T03:08:24;14.60;78.70
3298;DHT22;1661;53.572;10.174;2022-09-24T03:10:51;14.60;78.70
3298;DHT22;1661;53.572;10.174;2022-09-24T03:13:20;14.60;78.40
3298;DHT22;1661;53.572;10.174;2022-09-24T03:15:47;14.60;78.40
3298;DHT22;1661;53.572;10.174;2022-09-24T03:18:14;14.60;78.50
3298;DHT22;1661;53.572;10.174;2022-09-24T03:20:42;14.60;78.70
3298;DHT22;1661;53.572;10.174;2022-09-24T03:23:09;14.60;78.60
3298;DHT22;1661;53.572;10.174;2022-09-24T03:25:36;14.60;78.60
3298;DHT22;1661;53.572;10.174;2022-09-24T03:28:02;14.60;78.80
3298;DHT22;1661;53.572;10.174;2022-09-24T03:30:29;14.60;78.60
3298;DHT22;1661;53.572;10.174;2022-09-24T03:33:13;14.60;78.50
3298;DHT22;1661;53.572;10.174;2022-09-24T03:35:41;14.60;78.40
3298;DHT22;1661;53.572;10.174;2022-09-24T03:38:08;14.60;78.30
3298;DHT22;1661;53.572;10.174;2022-09-24T03:40:35;14.60;78.40
3298;DHT22;1661;53.572;10.174;2022-09-24T03:43:01;14.60;78.50
3298;DHT22;1661;53.572;10.174;2022-09-24T03:45:28;14.50;78.50
3298;DHT22;1661;53.572;10.174;2022-09-24T03:47:55;14.60;78.60
3298;DHT22;1661;53.572;10.174;2022-09-24T03:50:21;14.50;78.50
3298;DHT22;1661;53.572;10.174;2022-09-24T03:52:49;14.50;78.80
3298;DHT22;1661;53.572;10.174;2022-09-24T03:55:16;14.50;78.90
3298;DHT22;1661;53.572;10.174;2022-09-24T03:57:43;14.50;78.90
3298;DHT22;1661;53.572;10.174;2022-09-24T04:00:10;14.50;79.00
3298;DHT22;1661;53.572;10.174;2022-09-24T04:02:37;14.50;78.80
3298;DHT22;1661;53.572;10.174;2022-09-24T04:05:05;14.50;78.80
3298;DHT22;1661;53.572;10.174;2022-09-24T04:07:32;14.50;78.70
3298;DHT22;1661;53.572;10.174;2022-09-24T04:10:00;14.50;78.80
3298;DHT22;1661;53.572;10.174;2022-09-24T04:12:27;14.50;78.80
3298;DHT22;1661;53.572;10.174;2022-09-24T04:14:54;14.50;78.80
3298;DHT22;1661;53.572;10.174;2022-09-24T04:17:20;14.50;78.90
3298;DHT22;1661;53.572;10.174;2022-09-24T04:19:47;14.50;79.10
3298;DHT22;1661;53.572;10.174;2022-09-24T04:22:16;14.50;79.30
3298;DHT22;1661;53.572;10.174;2022-09-24T04:24:42;14.50;79.30
3298;DHT22;1661;53.572;10.174;2022-09-24T04:27:10;14.40;79.40
3298;DHT22;1661;53.572;10.174;2022-09-24T04:29:37;14.40;79.30
3298;DHT22;1661;53.572;10.174;2022-09-24T04:32:04;14.40;79.60
3298;DHT22;1661;53.572;10.174;2022-09-24T04:34:30;14.40;79.70
3298;DHT22;1661;53.572;10.174;2022-09-24T04:36:57;14.40;79.90
3298;DHT22;1661;53.572;10.174;2022-09-24T04:39:24;14.40;79.80
3298;DHT22;1661;53.572;10.174;2022-09-24T04:41:52;14.40;80.30
3298;DHT22;1661;53.572;10.174;2022-09-24T04:44:20;14.30;80.60
3298;DHT22;1661;53.572;10.174;2022-09-24T04:46:48;14.30;80.70
3298;DHT22;1661;53.572;10.174;2022-09-24T04:49:15;14.30;81.00
3298;DHT22;1661;53.572;10.174;2022-09-24T04:51:41;14.30;80.90
3298;DHT22;1661;53.572;10.174;2022-09-24T04:54:08;14.20;80.90
3298;DHT22;1661;53.572;10.174;2022-09-24T04:56:35;14.20;81.00
3298;DHT22;1661;53.572;10.174;2022-09-24T04:59:02;14.20;81.40
3298;DHT22;1661;53.572;10.174;2022-09-24T05:01:30;14.20;81.40
3298;DHT22;1661;53.572;10.174;2022-09-24T05:03:56;14.20;81.50
3298;DHT22;1661;53.572;10.174;2022-09-24T05:06:23;14.20;81.60
3298;DHT22;1661;53.572;10.174;2022-09-24T05:08:50;14.20;81.90
3298;DHT22;1661;53.572;10.174;2022-09-24T05:11:17;14.10;81.70
3298;DHT22;1661;53.572;10.174;2022-09-24T05:13:44;14.20;81.50
3298;DHT22;1661;53.572;10.174;2022-09-24T05:16:11;14.20;81.00
3298;DHT22;1661;53.572;10.174;2022-09-24T05:18:39;14.20;81.00
3298;DHT22;1661;53.572;10.174;2022-09-24T05:21:06;14.20;81.50
3298;DHT22;1661;53.572;10.174;2022-09-24T05:23:33;14.20;81.70
3298;DHT22;1661;53.572;10.174;2022-09-24T05:25:59;14.20;81.70
3298;DHT22;1661;53.572;10.174;2022-09-24T05:28:44;14.20;81.90
3298;DHT22;1661;53.572;10.174;2022-09-24T05:31:10;14.20;82.40
3298;DHT22;1661;53.572;10.174;2022-09-24T05:33:38;14.20;82.40
3298;DHT22;1661;53.572;10.174;2022-09-24T05:36:05;14.10;82.70
3298;DHT22;1661;53.572;10.174;2022-09-24T05:38:32;14.20;82.90
3298;DHT22;1661;53.572;10.174;2022-09-24T05:40:59;14.20;83.10
3298;DHT22;1661;53.572;10.174;2022-09-24T05:43:25;14.20;82.90
3298;DHT22;1661;53.572;10.174;2022-09-24T05:45:53;14.20;83.00
3298;DHT22;1661;53.572;10.174;2022-09-24T05:48:21;14.20;83.20
3298;DHT22;1661;53.572;10.174;2022-09-24T05:50:49;14.20;83.00
3298;DHT22;1661;53.572;10.174;2022-09-24T05:53:16;14.20;83.20
3298;DHT22;1661;53.572;10.174;2022-09-24T05:55:43;14.20;83.30
3298;DHT22;1661;53.572;10.174;2022-09-24T05:58:10;14.20;83.50
3298;DHT22;1661;53.572;10.174;2022-09-24T06:00:37;14.20;83.40
3298;DHT22;1661;53.572;10.174;2022-09-24T06:03:05;14.20;83.80
3298;DHT22;1661;53.572;10.174;2022-09-24T06:05:32;14.20;84.00
3298;DHT22;1661;53.572;10.174;2022-09-24T06:08:02;14.20;83.90
3298;DHT22;1661;53.572;10.174;2022-09-24T06:10:28;14.20;84.30
3298;DHT22;1661;53.572;10.174;2022-09-24T06:12:55;14.20;84.60
3298;DHT22;1661;53.572;10.174;2022-09-24T06:15:22;14.20;84.90
3298;DHT22;1661;53.572;10.174;2022-09-24T06:17:52;14.30;85.00
3298;DHT22;1661;53.572;10.174;2022-09-24T06:20:20;14.20;85.10
3298;DHT22;1661;53.572;10.174;2022-09-24T06:22:46;14.20;85.30
3298;DHT22;1661;53.572;10.174;2022-09-24T06:25:14;14.20;85.40
3298;DHT22;1661;53.572;10.174;2022-09-24T06:27:41;14.20;85.50
3298;DHT22;1661;53.572;10.174;2022-09-24T06:30:09;14.20;85.60
3298;DHT22;1661;53.572;10.174;2022-09-24T06:32:36;14.20;85.90
3298;DHT22;1661;53.572;10.174;2022-09-24T06:35:03;14.10;86.20
3298;DHT22;1661;53.572;10.174;2022-09-24T06:37:30;14.20;86.40
3298;DHT22;1661;53.572;10.174;2022-09-24T06:39:58;14.20;86.40
3298;DHT22;1661;53.572;10.174;2022-09-24T06:42:26;14.20;86.30
3298;DHT22;1661;53.572;10.174;2022-09-24T06:44:53;14.20;86.40
3298;DHT22;1661;53.572;10.174;2022-09-24T06:47:19;14.20;86.50
3298;DHT22;1661;53.572;10.174;2022-09-24T06:49:46;14.20;86.50
3298;DHT22;1661;53.572;10.174;2022-09-24T06:52:14;14.20;86.70
3298;DHT22;1661;53.572;10.174;2022-09-24T06:54:41;14.10;86.90
3298;DHT22;1661;53.572;10.174;2022-09-24T06:57:08;14.10;87.10
3298;DHT22;1661;53.572;10.174;2022-09-24T06:59:37;14.10;87.30
3298;DHT22;1661;53.572;10.174;2022-09-24T07:02:03;14.10;87.40
3298;DHT22;1661;53.572;10.174;2022-09-24T07:04:30;14.10;87.40
3298;DHT22;1661;53.572;10.174;2022-09-24T07:06:57;14.10;87.50
3298;DHT22;1661;53.572;10.174;2022-09-24T07:09:41;14.10;87.50
3298;DHT22;1661;53.572;10.174;2022-09-24T07:12:08;14.20;87.50
3298;DHT22;1661;53.572;10.174;2022-09-24T07:14:34;14.10;87.70
3298;DHT22;1661;53.572;10.174;2022-09-24T07:17:02;14.10;88.00
3298;DHT22;1661;53.572;10.174;2022-09-24T07:19:29;14.10;88.40
3298;DHT22;1661;53.572;10.174;2022-09-24T07:21:56;14.10;88.50
3298;DHT22;1661;53.572;10.174;2022-09-24T07:24:23;14.10;88.50
3298;DHT22;1661;53.572;10.174;2022-09-24T07:26:49;14.10;87.80
3298;DHT22;1661;53.572;10.174;2022-09-24T07:29:17;14.20;87.70
3298;DHT22;1661;53.572;10.174;2022-09-24T07:31:43;14.20;87.70
3298;DHT22;1661;53.572;10.174;2022-09-24T07:34:11;14.20;87.80
3298;DHT22;1661;53.572;10.174;2022-09-24T07:36:39;14.30;87.60
3298;DHT22;1661;53.572;10.174;2022-09-24T07:39:06;14.30;87.80
3298;DHT22;1661;53.572;10.174;2022-09-24T07:41:33;14.30;88.10
3298;DHT22;1661;53.572;10.174;2022-09-24T07:44:00;14.30;88.10
3298;DHT22;1661;53.572;10.174;2022-09-24T07:46:27;14.20;88.40
3298;DHT22;1661;53.572;10.174;2022-09-24T07:48:54;14.20;88.50
3298;DHT22;1661;53.572;10.174;2022-09-24T07:51:23;14.20;88.50
3298;DHT22;1661;53.572;10.174;2022-09-24T07:53:50;14.20;88.70
3298;DHT22;1661;53.572;10.174;2022-09-24T07:56:17;14.20;88.70
3298;DHT22;1661;53.572;10.174;2022-09-24T07:58:44;14.20;88.50
3298;DHT22;1661;53.572;10.174;2022-09-24T08:01:13;14.20;88.80
3298;DHT22;1661;53.572;10.174;2022-09-24T08:03:41;14.20;88.80
3298;DHT22;1661;53.572;10.174;2022-09-24T08:06:08;14.20;89.20
3298;DHT22;1661;53.572;10.174;2022-09-24T08:08:36;14.20;89.20
3298;DHT22;1661;53.572;10.174;2022-09-24T08:11:04;14.20;89.00
3298;DHT22;1661;53.572;10.174;2022-09-24T08:13:31;14.20;88.90
3298;DHT22;1661;53.572;10.174;2022-09-24T08:16:00;14.20;89.00
3298;DHT22;1661;53.572;10.174;2022-09-24T08:18:28;14.20;89.20
3298;DHT22;1661;53.572;10.174;2022-09-24T08:20:56;14.20;89.40
3298;DHT22;1661;53.572;10.174;2022-09-24T08:23:24;14.10;89.50
3298;DHT22;1661;53.572;10.174;2022-09-24T08:25:54;14.10;89.80
3298;DHT22;1661;53.572;10.174;2022-09-24T08:28:21;14.10;90.20
3298;DHT22;1661;53.572;10.174;2022-09-24T08:30:47;14.10;90.30
3298;DHT22;1661;53.572;10.174;2022-09-24T08:33:15;14.10;90.40
3298;DHT22;1661;53.572;10.174;2022-09-24T08:35:42;14.20;90.40
3298;DHT22;1661;53.572;10.174;2022-09-24T08:38:09;14.20;90.40
3298;DHT22;1661;53.572;10.174;2022-09-24T08:40:41;14.10;90.50
3298;DHT22;1661;53.572;10.174;2022-09-24T08:43:23;14.20;90.60
3298;DHT22;1661;53.572;10.174;2022-09-24T08:45:56;14.20;90.50
3298;DHT22;1661;53.572;10.174;2022-09-24T08:48:51;14.10;90.30
3298;DHT22;1661;53.572;10.174;2022-09-24T08:51:20;14.10;90.70
3298;DHT22;1661;53.572;10.174;2022-09-24T08:53:50;14.20;90.80
3298;DHT22;1661;53.572;10.174;2022-09-24T08:56:23;14.20;90.70
3298;DHT22;1661;53.572;10.174;2022-09-24T08:58:56;14.20;90.60
3298;DHT22;1661;53.572;10.174;2022-09-24T09:01:30;14.20;90.60
3298;DHT22;1661;53.572;10.174;2022-09-24T09:04:03;14.20;90.60
3298;DHT22;1661;53.572;10.174;2022-09-24T09:06:58;14.20;90.70
3298;DHT22;1661;53.572;10.174;2022-09-24T09:09:37;14.30;90.90
3298;DHT22;1661;53.572;10.174;2022-09-24T09:12:10;14.30;90.60
3298;DHT22;1661;53.572;10.174;2022-09-24T09:14:42;14.30;90.40
3298;DHT22;1661;53.572;10.174;2022-09-24T09:17:21;14.30;90.20
3298;DHT22;1661;53.572;10.174;2022-09-24T09:19:56;14.30;90.10
3298;DHT22;1661;53.572;10.174;2022-09-24T09:22:26;14.30;90.30
3298;DHT22;1661;53.572;10.174;2022-09-24T09:24:57;14.20;90.40
3298;DHT22;1661;53.572;10.174;2022-09-24T09:27:25;14.30;90.40
3298;DHT22;1661;53.572;10.174;2022-09-24T09:29:56;14.20;90.40
3298;DHT22;1661;53.572;10.174;2022-09-24T09:32:33;14.20;90.60
3298;DHT22;1661;53.572;10.174;2022-09-24T09:35:10;14.20;90.50
3298;DHT22;1661;53.572;10.174;2022-09-24T09:37:43;14.30;90.50
3298;DHT22;1661;53.572;10.174;2022-09-24T09:40:26;14.30;90.40
3298;DHT22;1661;53.572;10.174;2022-09-24T09:42:59;14.20;90.60
3298;DHT22;1661;53.572;10.174;2022-09-24T09:45:32;14.30;90.60
3298;DHT22;1661;53.572;10.174;2022-09-24T09:48:00;14.30;90.60
3298;DHT22;1661;53.572;10.174;2022-09-24T09:50:30;14.30;90.70
3298;DHT22;1661;53.572;10.174;2022-09-24T09:53:00;14.30;90.60
3298;DHT22;1661;53.572;10.174;2022-09-24T09:55:30;14.20;90.90
3298;DHT22;1661;53.572;10.174;2022-09-24T09:58:07;14.30;91.20
3298;DHT22;1661;53.572;10.174;2022-09-24T10:00:36;14.40;91.30
3298;DHT22;1661;53.572;10.174;2022-09-24T10:03:03;14.50;91.30
3298;DHT22;1661;53.572;10.174;2022-09-24T10:05:30;14.50;91.20
3298;DHT22;1661;53.572;10.174;2022-09-24T10:07:57;14.60;90.90
3298;DHT22;1661;53.572;10.174;2022-09-24T10:10:25;14.70;90.70
3298;DHT22;1661;53.572;10.174;2022-09-24T10:12:53;14.70;90.50
3298;DHT22;1661;53.572;10.174;2022-09-24T10:15:22;14.70;90.40
3298;DHT22;1661;53.572;10.174;2022-09-24T10:17:52;14.80;90.50
3298;DHT22;1661;53.572;10.174;2022-09-24T10:20:22;14.80;90.40
3298;DHT22;1661;53.572;10.174;2022-09-24T10:22:51;14.80;90.20
3298;DHT22;1661;53.572;10.174;2022-09-24T10:25:21;14.80;89.90
3298;DHT22;1661;53.572;10.174;2022-09-24T10:27:51;14.80;89.70
3298;DHT22;1661;53.572;10.174;2022-09-24T10:30:19;14.70;89.90
3298;DHT22;1661;53.572;10.174;2022-09-24T10:33:03;14.60;90.10
3298;DHT22;1661;53.572;10.174;2022-09-24T10:35:34;14.60;90.30
3298;DHT22;1661;53.572;10.174;2022-09-24T10:38:15;14.60;90.60
3298;DHT22;1661;53.572;10.174;2022-09-24T10:40:42;14.60;90.80
3298;DHT22;1661;53.572;10.174;2022-09-24T10:43:15;14.70;90.80
3298;DHT22;1661;53.572;10.174;2022-09-24T10:46:09;14.70;90.70
3298;DHT22;1661;53.572;10.174;2022-09-24T10:48:50;14.70;90.70
3298;DHT22;1661;53.572;10.174;2022-09-24T10:51:30;14.80;90.70
3298;DHT22;1661;53.572;10.174;2022-09-24T10:54:18;14.80;90.40
3298;DHT22;1661;53.572;10.174;2022-09-24T10:56:49;14.90;90.40
3298;DHT22;1661;53.572;10.174;2022-09-24T10:59:33;15.00;90.30
3298;DHT22;1661;53.572;10.174;2022-09-24T11:02:22;15.00;90.20
3298;DHT22;1661;53.572;10.174;2022-09-24T11:04:55;15.00;89.90
3298;DHT22;1661;53.572;10.174;2022-09-24T11:10:27;15.10;90.00
3298;DHT22;1661;53.572;10.174;2022-09-24T11:13:04;15.10;89.70
3298;DHT22;1661;53.572;10.174;2022-09-24T11:15:51;15.10;89.70
3298;DHT22;1661;53.572;10.174;2022-09-24T11:18:33;15.00;90.00
3298;DHT22;1661;53.572;10.174;2022-09-24T11:21:15;15.00;90.20
3298;DHT22;1661;53.572;10.174;2022-09-24T11:24:04;14.90;90.20
3298;DHT22;1661;53.572;10.174;2022-09-24T11:26:53;14.90;90.50
3298;DHT22;1661;53.572;10.174;2022-09-24T11:29:32;14.90;90.70
3298;DHT22;1661;53.572;10.174;2022-09-24T11:32:08;14.90;90.50
3298;DHT22;1661;53.572;10.174;2022-09-24T11:34:55;14.90;90.50
3298;DHT22;1661;53.572;10.174;2022-09-24T11:37:35;14.90;90.80
3298;DHT22;1661;53.572;10.174;2022-09-24T11:40:19;14.90;90.90
3298;DHT22;1661;53.572;10.174;2022-09-24T11:42:57;15.00;90.80
3298;DHT22;1661;53.572;10.174;2022-09-24T11:45:35;15.00;90.80
3298;DHT22;1661;53.572;10.174;2022-09-24T11:48:34;15.00;90.70
3298;DHT22;1661;53.572;10.174;2022-09-24T11:51:13;15.00;91.00
3298;DHT22;1661;53.572;10.174;2022-09-24T11:53:46;15.10;90.70
3298;DHT22;1661;53.572;10.174;2022-09-24T11:56:19;15.10;90.50
3298;DHT22;1661;53.572;10.174;2022-09-24T11:58:49;15.10;90.30
3298;DHT22;1661;53.572;10.174;2022-09-24T12:01:19;15.00;90.30
3298;DHT22;1661;53.572;10.174;2022-09-24T12:03:54;15.00;90.40
3298;DHT22;1661;53.572;10.174;2022-09-24T12:06:29;15.10;90.30
3298;DHT22;1661;53.572;10.174;2022-09-24T12:09:11;15.10;90.00
3298;DHT22;1661;53.572;10.174;2022-09-24T12:11:44;15.10;89.90
3298;DHT22;1661;53.572;10.174;2022-09-24T12:14:15;15.10;90.00
3298;DHT22;1661;53.572;10.174;2022-09-24T12:16:46;15.10;89.60
3298;DHT22;1661;53.572;10.174;2022-09-24T12:19:19;15.10;89.70
3298;DHT22;1661;53.572;10.174;2022-09-24T12:21:50;15.10;89.80
3298;DHT22;1661;53.572;10.174;2022-09-24T12:24:22;15.20;89.70
3298;DHT22;1661;53.572;10.174;2022-09-24T12:26:55;15.20;89.70
3298;DHT22;1661;53.572;10.174;2022-09-24T12:29:32;15.30;89.90
3298;DHT22;1661;53.572;10.174;2022-09-24T12:32:23;15.30;90.00
3298;DHT22;1661;53.572;10.174;2022-09-24T12:35:16;15.40;90.00
3298;DHT22;1661;53.572;10.174;2022-09-24T12:37:46;15.40;89.80
3298;DHT22;1661;53.572;10.174;2022-09-24T12:40:36;15.40;89.70
3298;DHT22;1661;53.572;10.174;2022-09-24T12:43:20;15.40;89.40
3298;DHT22;1661;53.572;10.174;2022-09-24T12:45:54;15.40;89.50
3298;DHT22;1661;53.572;10.174;2022-09-24T12:48:22;15.40;89.60
3298;DHT22;1661;53.572;10.174;2022-09-24T12:50:55;15.40;89.80
3298;DHT22;1661;53.572;10.174;2022-09-24T12:53:23;15.50;89.80
3298;DHT22;1661;53.572;10.174;2022-09-24T12:55:59;15.50;89.70
3298;DHT22;1661;53.572;10.174;2022-09-24T12:58:28;15.50;89.40
3298;DHT22;1661;53.572;10.174;2022-09-24T13:01:07;15.50;89.60
3298;DHT22;1661;53.572;10.174;2022-09-24T13:03:38;15.60;89.80
3298;DHT22;1661;53.572;10.174;2022-09-24T13:06:20;15.60;89.50
3298;DHT22;1661;53.572;10.174;2022-09-24T13:08:47;15.60;89.40
3298;DHT22;1661;53.572;10.174;2022-09-24T13:11:27;15.60;89.10
3298;DHT22;1661;53.572;10.174;2022-09-24T13:14:07;15.70;89.30
3298;DHT22;1661;53.572;10.174;2022-09-24T13:16:45;15.70;89.10
3298;DHT22;1661;53.572;10.174;2022-09-24T13:19:22;15.70;89.00
3298;DHT22;1661;53.572;10.174;2022-09-24T13:21:55;15.70;89.10
3298;DHT22;1661;53.572;10.174;2022-09-24T13:24:26;15.70;89.00
3298;DHT22;1661;53.572;10.174;2022-09-24T13:27:07;15.70;88.70
3298;DHT22;1661;53.572;10.174;2022-09-24T13:29:37;15.70;88.80
3298;DHT22;1661;53.572;10.174;2022-09-24T13:32:04;15.70;88.80
3298;DHT22;1661;53.572;10.174;2022-09-24T13:34:31;15.80;88.80
3298;DHT22;1661;53.572;10.174;2022-09-24T13:37:01;15.80;88.90
3298;DHT22;1661;53.572;10.174;2022-09-24T13:39:33;15.80;88.80
3298;DHT22;1661;53.572;10.174;2022-09-24T13:42:07;15.80;88.30
3298;DHT22;1661;53.572;10.174;2022-09-24T13:44:41;15.80;88.20
3298;DHT22;1661;53.572;10.174;2022-09-24T13:47:13;15.80;88.00
3298;DHT22;1661;53.572;10.174;2022-09-24T13:49:44;15.80;88.20
3298;DHT22;1661;53.572;10.174;2022-09-24T13:52:16;15.80;88.30
3298;DHT22;1661;53.572;10.174;2022-09-24T13:54:49;15.80;88.10
3298;DHT22;1661;53.572;10.174;2022-09-24T13:57:24;15.80;88.10
3298;DHT22;1661;53.572;10.174;2022-09-24T14:00:08;15.90;88.00
3298;DHT22;1661;53.572;10.174;2022-09-24T14:02:38;15.90;88.20
3298;DHT22;1661;53.572;10.174;2022-09-24T14:05:13;15.90;88.00
3298;DHT22;1661;53.572;10.174;2022-09-24T14:07:41;15.90;87.90
3298;DHT22;1661;53.572;10.174;2022-09-24T14:10:12;16.00;87.90
3298;DHT22;1661;53.572;10.174;2022-09-24T14:12:40;16.00;88.00
3298;DHT22;1661;53.572;10.174;2022-09-24T14:15:13;16.00;87.90
3298;DHT22;1661;53.572;10.174;2022-09-24T14:17:41;16.00;88.10
3298;DHT22;1661;53.572;10.174;2022-09-24T14:20:12;16.00;88.10
3298;DHT22;1661;53.572;10.174;2022-09-24T14:22:42;16.10;88.00
3298;DHT22;1661;53.572;10.174;2022-09-24T14:25:14;16.10;88.00
3298;DHT22;1661;53.572;10.174;2022-09-24T14:27:44;16.10;88.30
3298;DHT22;1661;53.572;10.174;2022-09-24T14:30:17;16.10;88.30
3298;DHT22;1661;53.572;10.174;2022-09-24T14:32:50;16.20;88.20
3298;DHT22;1661;53.572;10.174;2022-09-24T14:35:21;16.20;88.30
3298;DHT22;1661;53.572;10.174;2022-09-24T14:37:51;16.20;88.30
3298;DHT22;1661;53.572;10.174;2022-09-24T14:40:21;16.20;88.10
3298;DHT22;1661;53.572;10.174;2022-09-24T14:42:53;16.30;88.10
3298;DHT22;1661;53.572;10.174;2022-09-24T14:45:23;16.30;88.00
3298;DHT22;1661;53.572;10.174;2022-09-24T14:47:59;16.30;87.80
3298;DHT22;1661;53.572;10.174;2022-09-24T14:50:31;16.30;87.80
3298;DHT22;1661;53.572;10.174;2022-09-24T14:53:00;16.30;87.70
3298;DHT22;1661;53.572;10.174;2022-09-24T14:55:39;16.40;87.60
3298;DHT22;1661;53.572;10.174;2022-09-24T14:58:21;16.40;87.80
3298;DHT22;1661;53.572;10.174;2022-09-24T15:00:50;16.40;87.90
3298;DHT22;1661;53.572;10.174;2022-09-24T15:03:25;16.40;87.80
3298;DHT22;1661;53.572;10.174;2022-09-24T15:06:05;16.40;87.70
3298;DHT22;1661;53.572;10.174;2022-09-24T15:08:33;16.40;87.70
3298;DHT22;1661;53.572;10.174;2022-09-24T15:11:01;16.40;87.60
3298;DHT22;1661;53.572;10.174;2022-09-24T15:13:31;16.40;87.60
3298;DHT22;1661;53.572;10.174;2022-09-24T15:16:04;16.40;87.60
3298;DHT22;1661;53.572;10.174;2022-09-24T15:18:31;16.40;87.90
3298;DHT22;1661;53.572;10.174;2022-09-24T15:20:59;16.40;87.60
3298;DHT22;1661;53.572;10.174;2022-09-24T15:23:27;16.30;87.10
3298;DHT22;1661;53.572;10.174;2022-09-24T15:25:54;16.20;87.00
3298;DHT22;1661;53.572;10.174;2022-09-24T15:28:21;16.20;87.00
3298;DHT22;1661;53.572;10.174;2022-09-24T15:30:53;16.10;87.00
3298;DHT22;1661;53.572;10.174;2022-09-24T15:33:19;16.00;87.30
3298;DHT22;1661;53.572;10.174;2022-09-24T15:35:47;16.00;87.50
3298;DHT22;1661;53.572;10.174;2022-09-24T15:38:14;16.00;87.80
3298;DHT22;1661;53.572;10.174;2022-09-24T15:40:42;16.00;88.10
3298;DHT22;1661;53.572;10.174;2022-09-24T15:43:18;16.00;88.10
3298;DHT22;1661;53.572;10.174;2022-09-24T15:45:45;16.00;87.90
3298;DHT22;1661;53.572;10.174;2022-09-24T15:48:13;16.00;87.60
3298;DHT22;1661;53.572;10.174;2022-09-24T15:50:41;15.90;87.90
3298;DHT22;1661;53.572;10.174;2022-09-24T15:53:16;16.00;88.00
3298;DHT22;1661;53.572;10.174;2022-09-24T15:55:44;16.00;88.10
3298;DHT22;1661;53.572;10.174;2022-09-24T15:58:14;16.00;88.00
3298;DHT22;1661;53.572;10.174;2022-09-24T16:00:41;16.00;87.90
3298;DHT22;1661;53.572;10.174;2022-09-24T16:03:15;16.00;87.90
3298;DHT22;1661;53.572;10.174;2022-09-24T16:05:43;16.00;88.00
3298;DHT22;1661;53.572;10.174;2022-09-24T16:08:09;16.00;88.20
3298;DHT22;1661;53.572;10.174;2022-09-24T16:10:36;16.00;88.20
3298;DHT22;1661;53.572;10.174;2022-09-24T16:13:03;16.10;88.00
3298;DHT22;1661;53.572;10.174;2022-09-24T16:15:30;16.10;88.00